sensor_id;sensor_type;location;lat;lon;timestamp;pressure;altitude;pressure_sealevel;temperature;humidity
59170;BME280;52474;52.236;5.114;2024-03-08T00:01:51;101954.88;;;1.82;100.00
59170;BME280;52474;52.236;5.114;2024-03-08T00:04:17;101964.13;;;1.92;100.00
59170;BME280;52474;52.236;5.114;2024-03-08T00:06:43;101956.22;;;1.94;100.00
59170;BME280;52474;52.236;5.114;2024-03-08T00:09:14;101935.72;;;1.82;100.00
59170;BME280;52474;52.236;5.114;2024-03-08T00:11:41;101954.56;;;1.91;100.00
59170;BME280;52474;52.236;5.114;2024-03-08T00:14:06;101933.34;;;1.74;100.00
59170;BME280;52474;52.236;5.114;2024-03-08T00:16:33;101949.41;;;1.90;100.00
59170;BME280;52474;52.236;5.114;2024-03-08T00:19:01;101946.00;;;1.88;100.00
59170;BME280;52474;52.236;5.114;2024-03-08T00:21:26;101944.13;;;1.91;100.00
59170;BME280;52474;52.236;5.114;2024-03-08T00:23:53;101939.81;;;1.90;100.00
59170;BME280;52474;52.236;5.114;2024-03-08T00:26:21;101942.53;;;1.87;100.00
59170;BME280;52474;52.236;5.114;2024-03-08T00:28:50;101939.97;;;1.86;100.00
59170;BME280;52474;52.236;5.114;2024-03-08T00:31:15;101938.41;;;1.80;100.00
59170;BME280;52474;52.236;5.114;2024-03-08T00:33:42;101935.81;;;1.79;100.00
59170;BME280;52474;52.236;5.114;2024-03-08T00:36:08;101914.50;;;1.64;100.00
59170;BME280;52474;52.236;5.114;2024-03-08T00:38:34;101933.41;;;1.73;100.00
59170;BME280;52474;52.236;5.114;2024-03-08T00:41:00;101913.66;;;1.64;100.00
59170;BME280;52474;52.236;5.114;2024-03-08T00:43:25;101931.59;;;1.75;100.00
59170;BME280;52474;52.236;5.114;2024-03-08T00:45:51;101914.50;;;1.64;100.00
59170;BME280;52474;52.236;5.114;2024-03-08T00:48:17;101919.69;;;1.66;100.00
59170;BME280;52474;52.236;5.114;2024-03-08T00:50:43;101926.59;;;1.67;100.00
59170;BME280;52474;52.236;5.114;2024-03-08T00:53:11;101925.91;;;1.62;100.00
59170;BME280;52474;52.236;5.114;2024-03-08T00:55:38;101920.66;;;1.62;100.00
59170;BME280;52474;52.236;5.114;2024-03-08T00:58:06;101910.66;;;1.48;100.00
59170;BME280;52474;52.236;5.114;2024-03-08T01:00:34;101918.28;;;1.54;100.00
59170;BME280;52474;52.236;5.114;2024-03-08T01:02:59;101907.16;;;1.49;100.00
59170;BME280;52474;52.236;5.114;2024-03-08T01:05:25;101916.47;;;1.58;100.00
59170;BME280;52474;52.236;5.114;2024-03-08T01:07:51;101911.28;;;1.56;100.00
59170;BME280;52474;52.236;5.114;2024-03-08T01:10:16;101901.00;;;1.50;100.00
59170;BME280;52474;52.236;5.114;2024-03-08T01:12:42;101884.78;;;1.40;100.00
59170;BME280;52474;52.236;5.114;2024-03-08T01:15:11;101879.66;;;1.37;100.00
59170;BME280;52474;52.236;5.114;2024-03-08T01:17:37;101893.34;;;1.45;100.00
59170;BME280;52474;52.236;5.114;2024-03-08T01:20:03;101871.91;;;1.34;100.00
59170;BME280;52474;52.236;5.114;2024-03-08T01:22:29;101857.22;;;1.32;100.00
59170;BME280;52474;52.236;5.114;2024-03-08T01:24:56;101876.81;;;1.45;100.00
59170;BME280;52474;52.236;5.114;2024-03-08T01:27:22;101868.31;;;1.38;100.00
59170;BME280;52474;52.236;5.114;2024-03-08T01:29:48;101845.22;;;1.26;100.00
59170;BME280;52474;52.236;5.114;2024-03-08T01:32:13;101871.06;;;1.34;100.00
59170;BME280;52474;52.236;5.114;2024-03-08T01:34:40;101868.47;;;1.34;100.00
59170;BME280;52474;52.236;5.114;2024-03-08T01:37:06;101846.94;;;1.25;100.00
59170;BME280;52474;52.236;5.114;2024-03-08T01:39:32;101865.06;;;1.30;100.00
59170;BME280;52474;52.236;5.114;2024-03-08T01:41:58;101837.75;;;1.14;100.00
59170;BME280;52474;52.236;5.114;2024-03-08T01:44:24;101841.31;;;1.11;100.00
59170;BME280;52474;52.236;5.114;2024-03-08T01:46:51;101838.75;;;1.10;100.00
59170;BME280;52474;52.236;5.114;2024-03-08T01:49:18;101825.97;;;1.00;100.00
59170;BME280;52474;52.236;5.114;2024-03-08T01:51:47;101841.19;;;1.16;100.00
59170;BME280;52474;52.236;5.114;2024-03-08T01:54:15;101824.97;;;1.04;100.00
59170;BME280;52474;52.236;5.114;2024-03-08T01:56:42;101836.13;;;1.10;100.00
59170;BME280;52474;52.236;5.114;2024-03-08T01:59:08;101838.00;;;1.06;100.00
59170;BME280;52474;52.236;5.114;2024-03-08T02:01:34;101839.84;;;1.01;100.00
59170;BME280;52474;52.236;5.114;2024-03-08T02:04:00;101828.63;;;0.99;100.00
59170;BME280;52474;52.236;5.114;2024-03-08T02:06:26;101824.41;;;0.95;100.00
59170;BME280;52474;52.236;5.114;2024-03-08T02:08:51;101827.13;;;0.90;100.00
59170;BME280;52474;52.236;5.114;2024-03-08T02:11:17;101825.31;;;0.94;100.00
59170;BME280;52474;52.236;5.114;2024-03-08T02:13:44;101828.66;;;0.97;100.00
59170;BME280;52474;52.236;5.114;2024-03-08T02:16:10;101810.81;;;0.83;100.00
59170;BME280;52474;52.236;5.114;2024-03-08T02:18:36;101808.34;;;0.79;100.00
59170;BME280;52474;52.236;5.114;2024-03-08T02:21:03;101811.81;;;0.79;100.00
59170;BME280;52474;52.236;5.114;2024-03-08T02:23:29;101802.47;;;0.72;100.00
59170;BME280;52474;52.236;5.114;2024-03-08T02:25:56;101811.75;;;0.81;100.00
59170;BME280;52474;52.236;5.114;2024-03-08T02:28:23;101808.25;;;0.82;100.00
59170;BME280;52474;52.236;5.114;2024-03-08T02:30:52;101810.91;;;0.80;100.00
59170;BME280;52474;52.236;5.114;2024-03-08T02:33:24;101798.81;;;0.78;100.00
59170;BME280;52474;52.236;5.114;2024-03-08T02:35:50;101793.59;;;0.78;100.00
59170;BME280;52474;52.236;5.114;2024-03-08T02:38:18;101799.72;;;0.77;100.00
59170;BME280;52474;52.236;5.114;2024-03-08T02:40:48;101791.25;;;0.69;100.00
59170;BME280;52474;52.236;5.114;2024-03-08T02:43:15;101795.50;;;0.71;100.00
59170;BME280;52474;52.236;5.114;2024-03-08T02:45:41;101785.38;;;0.62;100.00
59170;BME280;52474;52.236;5.114;2024-03-08T02:48:07;101762.91;;;0.58;100.00
59170;BME280;52474;52.236;5.114;2024-03-08T02:50:36;101766.13;;;0.66;100.00
59170;BME280;52474;52.236;5.114;2024-03-08T02:53:03;101771.44;;;0.63;100.00
59170;BME280;52474;52.236;5.114;2024-03-08T02:55:29;101787.66;;;0.73;100.00
59170;BME280;52474;52.236;5.114;2024-03-08T02:57:55;101770.22;;;0.75;100.00
59170;BME280;52474;52.236;5.114;2024-03-08T03:00:22;101779.03;;;0.71;100.00
59170;BME280;52474;52.236;5.114;2024-03-08T03:02:52;101757.66;;;0.59;100.00
59170;BME280;52474;52.236;5.114;2024-03-08T03:05:23;101774.72;;;0.70;100.00
59170;BME280;52474;52.236;5.114;2024-03-08T03:07:49;101743.00;;;0.54;100.00
59170;BME280;52474;52.236;5.114;2024-03-08T03:10:18;101756.78;;;0.59;100.00
59170;BME280;52474;52.236;5.114;2024-03-08T03:12:45;101750.78;;;0.57;100.00
59170;BME280;52474;52.236;5.114;2024-03-08T03:15:12;101755.91;;;0.58;100.00
59170;BME280;52474;52.236;5.114;2024-03-08T03:17:39;101755.88;;;0.60;100.00
59170;BME280;52474;52.236;5.114;2024-03-08T03:20:08;101736.16;;;0.51;100.00
59170;BME280;52474;52.236;5.114;2024-03-08T03:22:38;101755.81;;;0.61;100.00
59170;BME280;52474;52.236;5.114;2024-03-08T03:25:04;101740.41;;;0.54;100.00
59170;BME280;52474;52.236;5.114;2024-03-08T03:27:32;101745.75;;;0.49;100.00
59170;BME280;52474;52.236;5.114;2024-03-08T03:29:58;101746.53;;;0.53;100.00
59170;BME280;52474;52.236;5.114;2024-03-08T03:32:44;101724.19;;;0.44;100.00
59170;BME280;52474;52.236;5.114;2024-03-08T03:35:15;101743.97;;;0.51;100.00
59170;BME280;52474;52.236;5.114;2024-03-08T03:37:41;101751.06;;;0.46;100.00
59170;BME280;52474;52.236;5.114;2024-03-08T03:40:17;101746.84;;;0.42;100.00
59170;BME280;52474;52.236;5.114;2024-03-08T03:42:44;101731.94;;;0.47;100.00
59170;BME280;52474;52.236;5.114;2024-03-08T03:45:11;101719.19;;;0.36;100.00
59170;BME280;52474;52.236;5.114;2024-03-08T03:47:36;101717.50;;;0.35;100.00
59170;BME280;52474;52.236;5.114;2024-03-08T03:50:05;101739.09;;;0.39;100.00
59170;BME280;52474;52.236;5.114;2024-03-08T03:52:31;101710.03;;;0.23;100.00
59170;BME280;52474;52.236;5.114;2024-03-08T03:54:57;101723.78;;;0.28;100.00
59170;BME280;52474;52.236;5.114;2024-03-08T03:57:23;101708.25;;;0.25;100.00
59170;BME280;52474;52.236;5.114;2024-03-08T03:59:49;101722.75;;;0.34;100.00
59170;BME280;52474;52.236;5.114;2024-03-08T04:02:17;101725.41;;;0.32;100.00
59170;BME280;52474;52.236;5.114;2024-03-08T04:04:43;101711.69;;;0.26;100.00
59170;BME280;52474;52.236;5.114;2024-03-08T04:07:10;101692.91;;;0.14;100.00
59170;BME280;52474;52.236;5.114;2024-03-08T04:09:36;101725.41;;;0.32;100.00
59170;BME280;52474;52.236;5.114;2024-03-08T04:12:02;101720.25;;;0.31;100.00
59170;BME280;52474;52.236;5.114;2024-03-08T04:14:27;101716.81;;;0.29;100.00
59170;BME280;52474;52.236;5.114;2024-03-08T04:16:53;101713.50;;;0.24;100.00
59170;BME280;52474;52.236;5.114;2024-03-08T04:19:19;101696.19;;;0.21;100.00
59170;BME280;52474;52.236;5.114;2024-03-08T04:21:44;101715.25;;;0.23;100.00
59170;BME280;52474;52.236;5.114;2024-03-08T04:24:10;101714.56;;;0.16;100.00
59170;BME280;52474;52.236;5.114;2024-03-08T04:26:36;101696.44;;;0.12;100.00
59170;BME280;52474;52.236;5.114;2024-03-08T04:29:01;101710.06;;;0.21;100.00
59170;BME280;52474;52.236;5.114;2024-03-08T04:31:27;101699.91;;;0.12;100.00
59170;BME280;52474;52.236;5.114;2024-03-08T04:33:53;101698.19;;;0.13;100.00
59170;BME280;52474;52.236;5.114;2024-03-08T04:36:18;101694.78;;;0.09;100.00
59170;BME280;52474;52.236;5.114;2024-03-08T04:38:45;101687.09;;;0.05;100.00
59170;BME280;52474;52.236;5.114;2024-03-08T04:41:11;101700.81;;;0.11;100.00
59170;BME280;52474;52.236;5.114;2024-03-08T04:43:37;101704.22;;;0.13;100.00
59170;BME280;52474;52.236;5.114;2024-03-08T04:46:03;101670.97;;;-0.08;100.00
59170;BME280;52474;52.236;5.114;2024-03-08T04:48:29;101696.66;;;0.04;100.00
59170;BME280;52474;52.236;5.114;2024-03-08T04:50:55;101698.41;;;0.05;100.00
59170;BME280;52474;52.236;5.114;2024-03-08T04:53:21;101695.72;;;0.07;100.00
59170;BME280;52474;52.236;5.114;2024-03-08T04:55:47;101690.53;;;0.07;100.00
59170;BME280;52474;52.236;5.114;2024-03-08T04:58:13;101695.06;;;0.00;100.00
59170;BME280;52474;52.236;5.114;2024-03-08T05:00:38;101686.69;;;-0.11;100.00
59170;BME280;52474;52.236;5.114;2024-03-08T05:03:04;101690.09;;;-0.09;100.00
59170;BME280;52474;52.236;5.114;2024-03-08T05:05:30;101695.09;;;-0.02;100.00
59170;BME280;52474;52.236;5.114;2024-03-08T05:07:56;101669.41;;;-0.14;100.00
59170;BME280;52474;52.236;5.114;2024-03-08T05:10:22;101688.31;;;-0.07;100.00
59170;BME280;52474;52.236;5.114;2024-03-08T05:12:48;101691.88;;;-0.11;100.00
59170;BME280;52474;52.236;5.114;2024-03-08T05:15:13;101682.38;;;-0.12;100.00
59170;BME280;52474;52.236;5.114;2024-03-08T05:17:40;101653.28;;;-0.28;100.00
59170;BME280;52474;52.236;5.114;2024-03-08T05:20:06;101660.16;;;-0.26;100.00
59170;BME280;52474;52.236;5.114;2024-03-08T05:22:37;101679.81;;;-0.14;100.00
59170;BME280;52474;52.236;5.114;2024-03-08T05:25:03;101672.03;;;-0.15;100.00
59170;BME280;52474;52.236;5.114;2024-03-08T05:27:29;101675.44;;;-0.13;100.00
59170;BME280;52474;52.236;5.114;2024-03-08T05:29:55;101680.75;;;-0.16;100.00
59170;BME280;52474;52.236;5.114;2024-03-08T05:32:20;101665.34;;;-0.24;100.00
59170;BME280;52474;52.236;5.114;2024-03-08T05:34:46;101675.53;;;-0.16;100.00
59170;BME280;52474;52.236;5.114;2024-03-08T05:37:12;101677.31;;;-0.17;100.00
59170;BME280;52474;52.236;5.114;2024-03-08T05:39:37;101667.09;;;-0.25;100.00
59170;BME280;52474;52.236;5.114;2024-03-08T05:42:03;101663.72;;;-0.28;100.00
59170;BME280;52474;52.236;5.114;2024-03-08T05:44:29;101660.25;;;-0.29;100.00
59170;BME280;52474;52.236;5.114;2024-03-08T05:46:56;101665.38;;;-0.26;100.00
59170;BME280;52474;52.236;5.114;2024-03-08T05:49:22;101661.94;;;-0.28;100.00
59170;BME280;52474;52.236;5.114;2024-03-08T05:51:48;101657.75;;;-0.32;100.00
59170;BME280;52474;52.236;5.114;2024-03-08T05:54:13;101673.91;;;-0.20;100.00
59170;BME280;52474;52.236;5.114;2024-03-08T05:56:40;101651.31;;;-0.20;100.00
59170;BME280;52474;52.236;5.114;2024-03-08T05:59:10;101663.25;;;-0.11;100.00
59170;BME280;52474;52.236;5.114;2024-03-08T06:01:36;101665.88;;;-0.13;100.00
59170;BME280;52474;52.236;5.114;2024-03-08T06:04:03;101663.22;;;-0.10;100.00
59170;BME280;52474;52.236;5.114;2024-03-08T06:06:29;101668.44;;;-0.10;100.00
59170;BME280;52474;52.236;5.114;2024-03-08T06:08:55;101662.44;;;-0.13;100.00
59170;BME280;52474;52.236;5.114;2024-03-08T06:11:22;101658.97;;;-0.14;100.00
59170;BME280;52474;52.236;5.114;2024-03-08T06:13:48;101659.84;;;-0.15;100.00
59170;BME280;52474;52.236;5.114;2024-03-08T06:16:15;101648.69;;;-0.18;100.00
59170;BME280;52474;52.236;5.114;2024-03-08T06:18:41;101652.88;;;-0.13;100.00
59170;BME280;52474;52.236;5.114;2024-03-08T06:21:09;101651.91;;;-0.09;100.00
59170;BME280;52474;52.236;5.114;2024-03-08T06:23:40;101632.75;;;-0.08;100.00
59170;BME280;52474;52.236;5.114;2024-03-08T06:26:06;101657.56;;;0.06;100.00
59170;BME280;52474;52.236;5.114;2024-03-08T06:28:32;101644.50;;;0.07;100.00
59170;BME280;52474;52.236;5.114;2024-03-08T06:31:02;101647.88;;;0.11;100.00
59170;BME280;52474;52.236;5.114;2024-03-08T06:33:28;101640.28;;;0.03;100.00
59170;BME280;52474;52.236;5.114;2024-03-08T06:35:54;101638.50;;;0.05;100.00
59170;BME280;52474;52.236;5.114;2024-03-08T06:38:23;101654.66;;;0.16;100.00
59170;BME280;52474;52.236;5.114;2024-03-08T06:40:49;101639.94;;;0.15;100.00
59170;BME280;52474;52.236;5.114;2024-03-08T06:43:17;101645.72;;;0.25;100.00
59170;BME280;52474;52.236;5.114;2024-03-08T06:45:46;101641.31;;;0.27;100.00
59170;BME280;52474;52.236;5.114;2024-03-08T06:48:17;101630.16;;;0.22;100.00
59170;BME280;52474;52.236;5.114;2024-03-08T06:50:44;101637.59;;;0.34;100.00
59170;BME280;52474;52.236;5.114;2024-03-08T06:53:11;101645.50;;;0.33;100.00
59170;BME280;52474;52.236;5.114;2024-03-08T06:55:36;101635.91;;;0.33;100.00
59170;BME280;52474;52.236;5.114;2024-03-08T06:58:02;101641.84;;;0.38;100.00
59170;BME280;52474;52.236;5.114;2024-03-08T07:00:28;101641.88;;;0.37;100.00
59170;BME280;52474;52.236;5.114;2024-03-08T07:02:59;101637.44;;;0.40;100.00
59170;BME280;52474;52.236;5.114;2024-03-08T07:05:28;101635.53;;;0.46;100.00
59170;BME280;52474;52.236;5.114;2024-03-08T07:07:54;101632.69;;;0.53;100.00
59170;BME280;52474;52.236;5.114;2024-03-08T07:10:21;101632.59;;;0.56;100.00
59170;BME280;52474;52.236;5.114;2024-03-08T07:12:49;101611.91;;;0.52;100.00
59170;BME280;52474;52.236;5.114;2024-03-08T07:15:15;101622.09;;;0.59;100.00
59170;BME280;52474;52.236;5.114;2024-03-08T07:17:41;101617.59;;;0.64;100.00
59170;BME280;52474;52.236;5.114;2024-03-08T07:20:10;101614.84;;;0.69;100.00
59170;BME280;52474;52.236;5.114;2024-03-08T07:22:38;101627.31;;;0.86;100.00
59170;BME280;52474;52.236;5.114;2024-03-08T07:25:07;101628.81;;;0.93;100.00
59170;BME280;52474;52.236;5.114;2024-03-08T07:27:34;101609.94;;;0.87;100.00
59170;BME280;52474;52.236;5.114;2024-03-08T07:30:03;101624.13;;;1.04;100.00
59170;BME280;52474;52.236;5.114;2024-03-08T07:32:29;101620.50;;;1.09;100.00
59170;BME280;52474;52.236;5.114;2024-03-08T07:34:55;101602.25;;;1.09;100.00
59170;BME280;52474;52.236;5.114;2024-03-08T07:37:22;101604.59;;;1.16;100.00
59170;BME280;52474;52.236;5.114;2024-03-08T07:39:47;101610.03;;;1.35;100.00
59170;BME280;52474;52.236;5.114;2024-03-08T07:42:13;101597.94;;;1.33;100.00
59170;BME280;52474;52.236;5.114;2024-03-08T07:44:39;101602.09;;;1.38;100.00
59170;BME280;52474;52.236;5.114;2024-03-08T07:47:05;101598.16;;;1.52;100.00
59170;BME280;52474;52.236;5.114;2024-03-08T07:49:35;101605.69;;;1.59;100.00
59170;BME280;52474;52.236;5.114;2024-03-08T07:52:01;101604.63;;;1.65;100.00
59170;BME280;52474;52.236;5.114;2024-03-08T07:54:27;101593.13;;;1.70;100.00
59170;BME280;52474;52.236;5.114;2024-03-08T07:56:52;101592.22;;;1.71;100.00
59170;BME280;52474;52.236;5.114;2024-03-08T07:59:18;101589.47;;;1.75;100.00
59170;BME280;52474;52.236;5.114;2024-03-08T08:01:44;101591.63;;;1.87;100.00
59170;BME280;52474;52.236;5.114;2024-03-08T08:04:10;101593.19;;;1.92;100.00
59170;BME280;52474;52.236;5.114;2024-03-08T08:06:40;101591.00;;;2.04;100.00
59170;BME280;52474;52.236;5.114;2024-03-08T08:09:07;101585.63;;;2.08;100.00
59170;BME280;52474;52.236;5.114;2024-03-08T08:11:54;101572.97;;;1.98;100.00
59170;BME280;52474;52.236;5.114;2024-03-08T08:14:20;101582.53;;;2.21;100.00
59170;BME280;52474;52.236;5.114;2024-03-08T08:16:47;101572.22;;;2.40;100.00
59170;BME280;52474;52.236;5.114;2024-03-08T08:19:14;101581.25;;;2.53;100.00
59170;BME280;52474;52.236;5.114;2024-03-08T08:21:41;101571.25;;;2.64;100.00
59170;BME280;52474;52.236;5.114;2024-03-08T08:24:07;101561.00;;;2.58;100.00
59170;BME280;52474;52.236;5.114;2024-03-08T08:26:32;101568.66;;;2.85;100.00
59170;BME280;52474;52.236;5.114;2024-03-08T08:28:59;101543.19;;;2.68;100.00
59170;BME280;52474;52.236;5.114;2024-03-08T08:31:25;101554.72;;;2.84;100.00
59170;BME280;52474;52.236;5.114;2024-03-08T08:33:51;101541.03;;;2.77;100.00
59170;BME280;52474;52.236;5.114;2024-03-08T08:36:26;101537.53;;;2.99;100.00
59170;BME280;52474;52.236;5.114;2024-03-08T08:38:52;101544.81;;;3.32;100.00
59170;BME280;52474;52.236;5.114;2024-03-08T08:41:22;101524.31;;;3.22;100.00
59170;BME280;52474;52.236;5.114;2024-03-08T08:43:48;101535.69;;;3.21;100.00
59170;BME280;52474;52.236;5.114;2024-03-08T08:46:17;101541.75;;;3.42;100.00
59170;BME280;52474;52.236;5.114;2024-03-08T08:48:44;101523.88;;;3.52;100.00
59170;BME280;52474;52.236;5.114;2024-03-08T08:51:13;101537.06;;;3.49;100.00
59170;BME280;52474;52.236;5.114;2024-03-08T08:53:39;101522.31;;;3.86;100.00
59170;BME280;52474;52.236;5.114;2024-03-08T08:56:09;101526.41;;;4.11;100.00
59170;BME280;52474;52.236;5.114;2024-03-08T08:58:42;101513.44;;;4.44;100.00
59170;BME280;52474;52.236;5.114;2024-03-08T09:01:10;101513.25;;;8.60;100.00
59170;BME280;52474;52.236;5.114;2024-03-08T09:03:37;101515.09;;;8.98;100.00
59170;BME280;52474;52.236;5.114;2024-03-08T09:06:04;101522.63;;;7.68;100.00
59170;BME280;52474;52.236;5.114;2024-03-08T09:08:30;101515.00;;;11.75;100.00
59170;BME280;52474;52.236;5.114;2024-03-08T09:10:56;101508.66;;;13.59;100.00
59170;BME280;52474;52.236;5.114;2024-03-08T09:13:21;101514.84;;;14.48;100.00
59170;BME280;52474;52.236;5.114;2024-03-08T09:15:48;101527.16;;;13.70;100.00
59170;BME280;52474;52.236;5.114;2024-03-08T09:18:14;101516.03;;;13.55;100.00
59170;BME280;52474;52.236;5.114;2024-03-08T09:20:40;101511.50;;;13.46;100.00
59170;BME280;52474;52.236;5.114;2024-03-08T09:23:06;101506.56;;;14.42;100.00
59170;BME280;52474;52.236;5.114;2024-03-08T09:25:33;101500.66;;;15.81;100.00
59170;BME280;52474;52.236;5.114;2024-03-08T09:27:59;101493.16;;;16.12;100.00
59170;BME280;52474;52.236;5.114;2024-03-08T09:30:25;101498.38;;;17.54;100.00
59170;BME280;52474;52.236;5.114;2024-03-08T09:32:51;101494.28;;;17.07;100.00
59170;BME280;52474;52.236;5.114;2024-03-08T09:35:17;101483.06;;;16.60;97.16
59170;BME280;52474;52.236;5.114;2024-03-08T09:37:42;101483.81;;;16.16;100.00
59170;BME280;52474;52.236;5.114;2024-03-08T09:40:08;101483.06;;;16.60;94.66
59170;BME280;52474;52.236;5.114;2024-03-08T09:42:42;101486.88;;;18.12;91.21
59170;BME280;52474;52.236;5.114;2024-03-08T09:45:11;101475.47;;;18.02;89.58
59170;BME280;52474;52.236;5.114;2024-03-08T09:47:41;101472.16;;;18.24;89.50
59170;BME280;52474;52.236;5.114;2024-03-08T09:50:08;101466.81;;;17.74;86.97
59170;BME280;52474;52.236;5.114;2024-03-08T09:52:37;101455.50;;;17.80;94.30
59170;BME280;52474;52.236;5.114;2024-03-08T09:55:09;101449.69;;;18.50;79.04
59170;BME280;52474;52.236;5.114;2024-03-08T09:57:43;101441.53;;;20.17;78.00
59170;BME280;52474;52.236;5.114;2024-03-08T10:00:28;101450.75;;;20.23;74.41
59170;BME280;52474;52.236;5.114;2024-03-08T10:02:53;101441.00;;;21.28;71.08
59170;BME280;52474;52.236;5.114;2024-03-08T10:05:19;101425.59;;;21.07;68.92
59170;BME280;52474;52.236;5.114;2024-03-08T10:07:47;101434.25;;;21.47;67.67
59170;BME280;52474;52.236;5.114;2024-03-08T10:10:13;101428.28;;;22.09;63.20
59170;BME280;52474;52.236;5.114;2024-03-08T10:12:38;101432.50;;;20.10;66.49
59170;BME280;52474;52.236;5.114;2024-03-08T10:15:08;101426.53;;;19.77;66.03
59170;BME280;52474;52.236;5.114;2024-03-08T10:17:37;101420.19;;;21.07;61.58
59170;BME280;52474;52.236;5.114;2024-03-08T10:20:03;101414.06;;;21.28;63.72
59170;BME280;52474;52.236;5.114;2024-03-08T10:22:30;101416.31;;;21.54;59.00
59170;BME280;52474;52.236;5.114;2024-03-08T10:24:57;101409.19;;;22.88;59.12
59170;BME280;52474;52.236;5.114;2024-03-08T10:27:23;101399.28;;;22.96;56.67
59170;BME280;52474;52.236;5.114;2024-03-08T10:29:48;101386.59;;;23.38;54.94
59170;BME280;52474;52.236;5.114;2024-03-08T10:32:15;101398.53;;;21.59;58.56
59170;BME280;52474;52.236;5.114;2024-03-08T10:34:41;101387.00;;;22.30;55.81
59170;BME280;52474;52.236;5.114;2024-03-08T10:37:07;101373.75;;;22.63;54.06
59170;BME280;52474;52.236;5.114;2024-03-08T10:39:36;101376.78;;;22.82;55.83
59170;BME280;52474;52.236;5.114;2024-03-08T10:42:04;101374.34;;;22.31;53.65
59170;BME280;52474;52.236;5.114;2024-03-08T10:47:02;101365.88;;;19.12;57.41
59170;BME280;52474;52.236;5.114;2024-03-08T10:49:54;101352.81;;;20.32;57.72
59170;BME280;52474;52.236;5.114;2024-03-08T10:52:21;101339.03;;;22.32;56.79
59170;BME280;52474;52.236;5.114;2024-03-08T10:54:48;101352.97;;;21.64;53.63
59170;BME280;52474;52.236;5.114;2024-03-08T10:57:17;101334.63;;;20.72;56.48
59170;BME280;52474;52.236;5.114;2024-03-08T10:59:43;101331.63;;;22.13;59.38
59170;BME280;52474;52.236;5.114;2024-03-08T11:02:11;101333.28;;;20.38;55.77
59170;BME280;52474;52.236;5.114;2024-03-08T11:04:37;101318.81;;;22.43;56.31
59170;BME280;52474;52.236;5.114;2024-03-08T11:07:03;101322.19;;;22.02;53.01
59170;BME280;52474;52.236;5.114;2024-03-08T11:09:37;101323.63;;;22.54;50.72
59170;BME280;52474;52.236;5.114;2024-03-08T11:12:23;101312.34;;;22.16;54.42
59170;BME280;52474;52.236;5.114;2024-03-08T11:15:13;101301.03;;;24.11;49.94
59170;BME280;52474;52.236;5.114;2024-03-08T11:20:09;101300.81;;;20.70;56.41
59170;BME280;52474;52.236;5.114;2024-03-08T11:22:51;101294.78;;;20.23;56.17
59170;BME280;52474;52.236;5.114;2024-03-08T11:33:36;101267.97;;;23.83;49.14
59170;BME280;52474;52.236;5.114;2024-03-08T11:36:13;101270.34;;;20.10;54.29
59170;BME280;52474;52.236;5.114;2024-03-08T11:38:45;101254.88;;;20.42;55.95
59170;BME280;52474;52.236;5.114;2024-03-08T11:41:15;101253.84;;;20.43;54.05
59170;BME280;52474;52.236;5.114;2024-03-08T11:43:41;101242.53;;;22.76;52.03
59170;BME280;52474;52.236;5.114;2024-03-08T11:46:10;101230.03;;;21.06;51.16
59170;BME280;52474;52.236;5.114;2024-03-08T11:48:41;101234.00;;;21.31;49.51
59170;BME280;52474;52.236;5.114;2024-03-08T11:51:08;101227.22;;;21.35;51.48
59170;BME280;52474;52.236;5.114;2024-03-08T11:53:35;101229.56;;;20.21;53.19
59170;BME280;52474;52.236;5.114;2024-03-08T11:56:09;101221.63;;;20.94;52.30
59170;BME280;52474;52.236;5.114;2024-03-08T11:58:37;101208.31;;;21.50;51.39
59170;BME280;52474;52.236;5.114;2024-03-08T12:01:04;101204.00;;;21.34;50.31
59170;BME280;52474;52.236;5.114;2024-03-08T12:03:31;101199.06;;;21.59;50.88
59170;BME280;52474;52.236;5.114;2024-03-08T12:06:00;101204.53;;;21.23;51.50
59170;BME280;52474;52.236;5.114;2024-03-08T12:08:27;101189.06;;;21.53;53.68
59170;BME280;52474;52.236;5.114;2024-03-08T12:10:56;101169.91;;;22.94;50.78
59170;BME280;52474;52.236;5.114;2024-03-08T12:13:34;101179.47;;;22.00;48.42
59170;BME280;52474;52.236;5.114;2024-03-08T12:16:03;101174.03;;;19.23;54.04
59170;BME280;52474;52.236;5.114;2024-03-08T12:18:37;101164.28;;;19.45;52.67
59170;BME280;52474;52.236;5.114;2024-03-08T12:21:06;101165.88;;;19.92;51.95
59170;BME280;52474;52.236;5.114;2024-03-08T12:23:37;101155.53;;;20.91;51.00
59170;BME280;52474;52.236;5.114;2024-03-08T12:26:15;101166.94;;;20.93;51.84
59170;BME280;52474;52.236;5.114;2024-03-08T12:28:42;101150.00;;;19.97;52.71
59170;BME280;52474;52.236;5.114;2024-03-08T12:31:11;101140.84;;;19.53;52.73
59170;BME280;52474;52.236;5.114;2024-03-08T12:34:00;101148.31;;;20.41;53.48
59170;BME280;52474;52.236;5.114;2024-03-08T12:36:26;101144.22;;;18.55;55.89
59170;BME280;52474;52.236;5.114;2024-03-08T12:38:53;101131.97;;;19.15;53.75
59170;BME280;52474;52.236;5.114;2024-03-08T12:41:20;101142.22;;;19.87;54.88
59170;BME280;52474;52.236;5.114;2024-03-08T12:43:47;101141.56;;;21.02;52.31
59170;BME280;52474;52.236;5.114;2024-03-08T12:46:20;101137.31;;;20.72;52.32
59170;BME280;52474;52.236;5.114;2024-03-08T12:48:46;101142.03;;;20.70;50.61
59170;BME280;52474;52.236;5.114;2024-03-08T12:51:16;101128.72;;;19.58;51.84
59170;BME280;52474;52.236;5.114;2024-03-08T12:53:43;101131.28;;;20.04;52.76
59170;BME280;52474;52.236;5.114;2024-03-08T12:56:10;101132.72;;;18.78;53.48
59170;BME280;52474;52.236;5.114;2024-03-08T12:58:36;101133.97;;;17.72;54.92
59170;BME280;52474;52.236;5.114;2024-03-08T13:01:03;101130.72;;;15.77;60.70
59170;BME280;52474;52.236;5.114;2024-03-08T13:03:35;101121.38;;;14.93;68.24